sensor_id;sensor_type;location;lat;lon;timestamp;pressure;altitude;pressure_sealevel;temperature;humidity
12722;BME280;6425;50.316;8.114;2022-12-07T08:59:34;99071.19;;;1.65;100.00
12722;BME280;6425;50.316;8.114;2022-12-07T09:04:36;99058.50;;;1.92;100.00
12722;BME280;6425;50.316;8.114;2022-12-07T09:09:36;99065.16;;;1.96;100.00
12722;BME280;6425;50.316;8.114;2022-12-07T09:14:38;99076.78;;;1.97;100.00
12722;BME280;6425;50.316;8.114;2022-12-07T09:19:39;99067.66;;;2.05;100.00
12722;BME280;6425;50.316;8.114;2022-12-07T09:24:39;99074.69;;;2.19;100.00
12722;BME280;6425;50.316;8.114;2022-12-07T09:29:41;99073.84;;;2.45;98.98
12722;BME280;6425;50.316;8.114;2022-12-07T09:46:17;99072.59;;;2.41;96.15
12722;BME280;6425;50.316;8.114;2022-12-07T09:51:21;99071.13;;;2.51;95.72
12722;BME280;6425;50.316;8.114;2022-12-07T09:56:22;99054.88;;;2.58;95.05
12722;BME280;6425;50.316;8.114;2022-12-07T10:01:24;99050.47;;;2.70;95.15
12722;BME280;6425;50.316;8.114;2022-12-07T10:06:24;99046.16;;;2.56;95.22
12722;BME280;6425;50.316;8.114;2022-12-07T10:11:25;99038.50;;;2.40;96.24
12722;BME280;6425;50.316;8.114;2022-12-07T10:16:35;99043.88;;;2.53;96.64
12722;BME280;6425;50.316;8.114;2022-12-07T10:21:36;99033.47;;;2.57;95.43
12722;BME280;6425;50.316;8.114;2022-12-07T10:26:38;99033.03;;;2.60;94.80
12722;BME280;6425;50.316;8.114;2022-12-07T10:31:42;99033.66;;;2.62;94.57
12722;BME280;6425;50.316;8.114;2022-12-07T10:36:42;99028.22;;;2.68;93.63
12722;BME280;6425;50.316;8.114;2022-12-07T10:41:53;99021.34;;;2.72;92.96
12722;BME280;6425;50.316;8.114;2022-12-07T10:47:08;99011.06;;;2.88;92.06
12722;BME280;6425;50.316;8.114;2022-12-07T10:52:15;99007.44;;;3.07;93.15
12722;BME280;6425;50.316;8.114;2022-12-07T10:57:35;99012.66;;;2.57;94.62
12722;BME280;6425;50.316;8.114;2022-12-07T11:02:53;99005.31;;;2.71;94.64
12722;BME280;6425;50.316;8.114;2022-12-07T11:08:03;99006.66;;;2.55;94.77
12722;BME280;6425;50.316;8.114;2022-12-07T11:13:23;99007.84;;;2.66;94.14
12722;BME280;6425;50.316;8.114;2022-12-07T11:18:28;98997.31;;;2.44;94.36
12722;BME280;6425;50.316;8.114;2022-12-07T11:23:41;98999.75;;;2.59;94.29
12722;BME280;6425;50.316;8.114;2022-12-07T11:28:59;98986.91;;;2.48;94.69
12722;BME280;6425;50.316;8.114;2022-12-07T11:34:10;98993.53;;;2.59;94.69
12722;BME280;6425;50.316;8.114;2022-12-07T11:39:22;98984.84;;;2.50;94.36
12722;BME280;6425;50.316;8.114;2022-12-07T11:44:31;98977.38;;;2.39;94.22
12722;BME280;6425;50.316;8.114;2022-12-07T11:49:42;98978.47;;;2.24;94.66
12722;BME280;6425;50.316;8.114;2022-12-07T11:54:45;98962.31;;;2.56;94.01
12722;BME280;6425;50.316;8.114;2022-12-07T12:20:34;98943.28;;;2.38;99.62
12722;BME280;6425;50.316;8.114;2022-12-07T12:25:39;98938.59;;;2.58;97.69
12722;BME280;6425;50.316;8.114;2022-12-07T12:30:41;98938.16;;;2.61;96.79
12722;BME280;6425;50.316;8.114;2022-12-07T12:35:43;98932.63;;;2.88;95.31
12722;BME280;6425;50.316;8.114;2022-12-07T12:40:44;98920.41;;;3.35;93.81
12722;BME280;6425;50.316;8.114;2022-12-07T12:45:44;98927.00;;;3.46;93.06
12722;BME280;6425;50.316;8.114;2022-12-07T12:50:46;98921.41;;;2.84;91.51
12722;BME280;6425;50.316;8.114;2022-12-07T12:56:09;98914.47;;;3.51;91.72
12722;BME280;6425;50.316;8.114;2022-12-07T13:01:45;98917.13;;;3.01;91.34
12722;BME280;6425;50.316;8.114;2022-12-07T13:06:47;98917.81;;;2.07;92.63
12722;BME280;6425;50.316;8.114;2022-12-07T13:11:49;98924.91;;;1.88;94.97
12722;BME280;6425;50.316;8.114;2022-12-07T13:16:50;98930.28;;;2.01;96.66
12722;BME280;6425;50.316;8.114;2022-12-07T13:21:52;98914.56;;;1.79;97.60
12722;BME280;6425;50.316;8.114;2022-12-07T13:26:55;98911.41;;;1.95;97.88
12722;BME280;6425;50.316;8.114;2022-12-07T13:31:57;98909.66;;;2.65;97.53
12722;BME280;6425;50.316;8.114;2022-12-07T13:37:00;98909.06;;;2.57;95.59
12722;BME280;6425;50.316;8.114;2022-12-07T13:42:12;98902.50;;;2.46;95.13
12722;BME280;6425;50.316;8.114;2022-12-07T13:47:17;98902.81;;;2.63;93.45
12722;BME280;6425;50.316;8.114;2022-12-07T13:52:23;98906.31;;;3.26;91.50
12722;BME280;6425;50.316;8.114;2022-12-07T13:57:25;98899.09;;;3.20;90.21
